sensor_id;sensor_type;location;lat;lon;timestamp;temperature;humidity
64111;DHT22;50401;48.188;11.566;2023-08-30T00:01:11;14.00;91.07
64111;DHT22;50401;48.188;11.566;2023-08-30T00:03:37;14.01;90.88
64111;DHT22;50401;48.188;11.566;2023-08-30T00:06:03;13.94;90.79
64111;DHT22;50401;48.188;11.566;2023-08-30T00:08:29;13.93;90.77
64111;DHT22;50401;48.188;11.566;2023-08-30T00:10:54;13.90;90.85
64111;DHT22;50401;48.188;11.566;2023-08-30T00:13:21;13.84;90.79
64111;DHT22;50401;48.188;11.566;2023-08-30T00:15:46;13.88;90.98
64111;DHT22;50401;48.188;11.566;2023-08-30T00:18:11;13.87;90.97
64111;DHT22;50401;48.188;11.566;2023-08-30T00:20:37;13.88;91.00
64111;DHT22;50401;48.188;11.566;2023-08-30T00:23:02;13.85;90.96
64111;DHT22;50401;48.188;11.566;2023-08-30T00:25:28;13.87;90.98
64111;DHT22;50401;48.188;11.566;2023-08-30T00:27:53;13.88;90.93
64111;DHT22;50401;48.188;11.566;2023-08-30T00:30:18;13.90;90.95
64111;DHT22;50401;48.188;11.566;2023-08-30T00:32:44;13.84;90.86
64111;DHT22;50401;48.188;11.566;2023-08-30T00:35:09;13.91;90.92
64111;DHT22;50401;48.188;11.566;2023-08-30T00:37:35;13.87;90.85
64111;DHT22;50401;48.188;11.566;2023-08-30T00:40:00;13.85;90.89
64111;DHT22;50401;48.188;11.566;2023-08-30T00:42:26;13.87;90.86
64111;DHT22;50401;48.188;11.566;2023-08-30T00:44:52;13.85;90.89
64111;DHT22;50401;48.188;11.566;2023-08-30T00:47:17;13.93;90.75
64111;DHT22;50401;48.188;11.566;2023-08-30T00:49:43;13.84;90.74
64111;DHT22;50401;48.188;11.566;2023-08-30T00:52:08;13.90;90.83
64111;DHT22;50401;48.188;11.566;2023-08-30T00:54:34;13.87;90.76
64111;DHT22;50401;48.188;11.566;2023-08-30T00:57:00;13.85;90.80
64111;DHT22;50401;48.188;11.566;2023-08-30T00:59:26;13.87;90.78
64111;DHT22;50401;48.188;11.566;2023-08-30T01:01:52;13.91;90.60
64111;DHT22;50401;48.188;11.566;2023-08-30T01:04:18;13.91;90.58
64111;DHT22;50401;48.188;11.566;2023-08-30T01:06:44;13.87;90.49
64111;DHT22;50401;48.188;11.566;2023-08-30T01:09:09;13.84;90.59
64111;DHT22;50401;48.188;11.566;2023-08-30T01:14:20;13.80;90.62
64111;DHT22;50401;48.188;11.566;2023-08-30T01:16:47;13.83;90.61
64111;DHT22;50401;48.188;11.566;2023-08-30T01:21:48;13.80;90.66
64111;DHT22;50401;48.188;11.566;2023-08-30T01:24:23;13.80;90.64
64111;DHT22;50401;48.188;11.566;2023-08-30T01:27:00;13.80;90.63
64111;DHT22;50401;48.188;11.566;2023-08-30T01:29:25;13.76;90.67
64111;DHT22;50401;48.188;11.566;2023-08-30T01:31:52;13.76;90.61
64111;DHT22;50401;48.188;11.566;2023-08-30T01:34:17;13.74;90.63
64111;DHT22;50401;48.188;11.566;2023-08-30T01:36:42;13.76;90.65
64111;DHT22;50401;48.188;11.566;2023-08-30T01:39:10;13.73;90.72
64111;DHT22;50401;48.188;11.566;2023-08-30T01:41:35;13.69;90.64
64111;DHT22;50401;48.188;11.566;2023-08-30T01:44:01;13.71;90.67
64111;DHT22;50401;48.188;11.566;2023-08-30T01:46:29;13.73;90.69
64111;DHT22;50401;48.188;11.566;2023-08-30T01:48:56;13.70;90.73
64111;DHT22;50401;48.188;11.566;2023-08-30T01:51:21;13.65;90.61
64111;DHT22;50401;48.188;11.566;2023-08-30T01:53:46;13.67;90.61
64111;DHT22;50401;48.188;11.566;2023-08-30T01:56:15;13.65;90.60
64111;DHT22;50401;48.188;11.566;2023-08-30T01:58:40;13.67;90.59
64111;DHT22;50401;48.188;11.566;2023-08-30T02:01:05;13.65;90.66
64111;DHT22;50401;48.188;11.566;2023-08-30T02:03:31;13.65;90.66
64111;DHT22;50401;48.188;11.566;2023-08-30T02:06:02;13.67;90.65
64111;DHT22;50401;48.188;11.566;2023-08-30T02:08:31;13.69;90.61
64111;DHT22;50401;48.188;11.566;2023-08-30T02:11:01;13.67;90.61
64111;DHT22;50401;48.188;11.566;2023-08-30T02:13:27;13.70;90.65
64111;DHT22;50401;48.188;11.566;2023-08-30T02:15:56;13.73;90.58
64111;DHT22;50401;48.188;11.566;2023-08-30T02:18:23;13.73;90.60
64111;DHT22;50401;48.188;11.566;2023-08-30T02:20:50;13.73;90.52
64111;DHT22;50401;48.188;11.566;2023-08-30T02:23:15;13.73;90.52
64111;DHT22;50401;48.188;11.566;2023-08-30T02:25:40;13.69;90.47
64111;DHT22;50401;48.188;11.566;2023-08-30T02:28:06;13.67;90.53
64111;DHT22;50401;48.188;11.566;2023-08-30T02:30:31;13.67;90.42
64111;DHT22;50401;48.188;11.566;2023-08-30T02:32:56;13.66;90.37
64111;DHT22;50401;48.188;11.566;2023-08-30T02:35:21;13.63;90.34
64111;DHT22;50401;48.188;11.566;2023-08-30T02:37:47;13.63;90.43
64111;DHT22;50401;48.188;11.566;2023-08-30T02:40:12;13.63;90.41
64111;DHT22;50401;48.188;11.566;2023-08-30T02:42:37;13.63;90.37
64111;DHT22;50401;48.188;11.566;2023-08-30T02:45:02;13.63;90.41
64111;DHT22;50401;48.188;11.566;2023-08-30T02:47:27;13.69;90.47
64111;DHT22;50401;48.188;11.566;2023-08-30T02:49:53;13.66;90.39
64111;DHT22;50401;48.188;11.566;2023-08-30T02:52:18;13.67;90.41
64111;DHT22;50401;48.188;11.566;2023-08-30T02:54:43;13.67;90.39
64111;DHT22;50401;48.188;11.566;2023-08-30T02:57:09;13.65;90.35
64111;DHT22;50401;48.188;11.566;2023-08-30T02:59:34;13.63;90.36
64111;DHT22;50401;48.188;11.566;2023-08-30T03:01:59;13.62;90.33
64111;DHT22;50401;48.188;11.566;2023-08-30T03:04:24;13.65;90.35
64111;DHT22;50401;48.188;11.566;2023-08-30T03:06:50;13.65;90.37
64111;DHT22;50401;48.188;11.566;2023-08-30T03:09:15;13.67;90.35
64111;DHT22;50401;48.188;11.566;2023-08-30T03:11:40;13.66;90.36
64111;DHT22;50401;48.188;11.566;2023-08-30T03:14:05;13.66;90.40
64111;DHT22;50401;48.188;11.566;2023-08-30T03:16:30;13.66;90.42
64111;DHT22;50401;48.188;11.566;2023-08-30T03:18:56;13.66;90.42
64111;DHT22;50401;48.188;11.566;2023-08-30T03:21:21;13.76;90.41
64111;DHT22;50401;48.188;11.566;2023-08-30T03:23:46;13.74;90.41
64111;DHT22;50401;48.188;11.566;2023-08-30T03:26:12;13.71;90.32
64111;DHT22;50401;48.188;11.566;2023-08-30T03:28:38;13.73;90.36
64111;DHT22;50401;48.188;11.566;2023-08-30T03:31:13;13.73;90.38
64111;DHT22;50401;48.188;11.566;2023-08-30T03:33:38;13.71;90.39
64111;DHT22;50401;48.188;11.566;2023-08-30T03:36:06;13.73;90.37
64111;DHT22;50401;48.188;11.566;2023-08-30T03:38:31;13.76;90.34
64111;DHT22;50401;48.188;11.566;2023-08-30T03:40:56;13.74;90.33
64111;DHT22;50401;48.188;11.566;2023-08-30T03:43:22;13.74;90.34
64111;DHT22;50401;48.188;11.566;2023-08-30T03:45:47;13.73;90.43
64111;DHT22;50401;48.188;11.566;2023-08-30T03:48:12;13.73;90.47
64111;DHT22;50401;48.188;11.566;2023-08-30T03:50:37;13.71;90.49
64111;DHT22;50401;48.188;11.566;2023-08-30T03:53:03;13.71;90.53
64111;DHT22;50401;48.188;11.566;2023-08-30T03:55:28;13.70;90.57
64111;DHT22;50401;48.188;11.566;2023-08-30T03:57:53;13.74;90.55
64111;DHT22;50401;48.188;11.566;2023-08-30T04:00:18;13.76;90.58
64111;DHT22;50401;48.188;11.566;2023-08-30T04:02:44;13.76;90.58
64111;DHT22;50401;48.188;11.566;2023-08-30T04:05:09;13.74;90.57
64111;DHT22;50401;48.188;11.566;2023-08-30T04:07:37;13.78;90.59
64111;DHT22;50401;48.188;11.566;2023-08-30T04:10:02;13.78;90.56
64111;DHT22;50401;48.188;11.566;2023-08-30T04:12:31;13.78;90.58
64111;DHT22;50401;48.188;11.566;2023-08-30T04:14:56;13.80;90.59
64111;DHT22;50401;48.188;11.566;2023-08-30T04:17:21;13.80;90.65
64111;DHT22;50401;48.188;11.566;2023-08-30T04:19:46;13.74;90.59
64111;DHT22;50401;48.188;11.566;2023-08-30T04:22:12;13.74;90.57
64111;DHT22;50401;48.188;11.566;2023-08-30T04:24:37;13.74;90.55
64111;DHT22;50401;48.188;11.566;2023-08-30T04:27:02;13.73;90.58
64111;DHT22;50401;48.188;11.566;2023-08-30T04:29:28;13.71;90.60
64111;DHT22;50401;48.188;11.566;2023-08-30T04:31:53;13.74;90.61
64111;DHT22;50401;48.188;11.566;2023-08-30T04:34:19;13.77;90.61
64111;DHT22;50401;48.188;11.566;2023-08-30T04:36:44;13.77;90.63
64111;DHT22;50401;48.188;11.566;2023-08-30T04:39:09;13.77;90.61
64111;DHT22;50401;48.188;11.566;2023-08-30T04:41:35;13.76;90.61
64111;DHT22;50401;48.188;11.566;2023-08-30T04:44:00;13.76;90.61
64111;DHT22;50401;48.188;11.566;2023-08-30T04:46:25;13.77;90.65
64111;DHT22;50401;48.188;11.566;2023-08-30T04:48:50;13.80;90.65
64111;DHT22;50401;48.188;11.566;2023-08-30T04:51:16;13.78;90.62
64111;DHT22;50401;48.188;11.566;2023-08-30T04:53:41;13.80;90.68
64111;DHT22;50401;48.188;11.566;2023-08-30T04:56:11;13.81;90.63
64111;DHT22;50401;48.188;11.566;2023-08-30T04:58:37;13.76;90.59
64111;DHT22;50401;48.188;11.566;2023-08-30T05:01:02;13.77;90.53
64111;DHT22;50401;48.188;11.566;2023-08-30T05:03:27;13.74;90.47
64111;DHT22;50401;48.188;11.566;2023-08-30T05:05:53;13.76;90.48
64111;DHT22;50401;48.188;11.566;2023-08-30T05:08:18;13.74;90.54
64111;DHT22;50401;48.188;11.566;2023-08-30T05:10:43;13.74;90.60
64111;DHT22;50401;48.188;11.566;2023-08-30T05:13:08;13.77;90.55
64111;DHT22;50401;48.188;11.566;2023-08-30T05:15:34;13.83;90.53
64111;DHT22;50401;48.188;11.566;2023-08-30T05:17:59;13.81;90.47
64111;DHT22;50401;48.188;11.566;2023-08-30T05:20:24;13.80;90.43
64111;DHT22;50401;48.188;11.566;2023-08-30T05:22:50;13.78;90.46
64111;DHT22;50401;48.188;11.566;2023-08-30T05:25:15;13.81;90.44
64111;DHT22;50401;48.188;11.566;2023-08-30T05:27:40;13.81;90.38
64111;DHT22;50401;48.188;11.566;2023-08-30T05:30:06;13.80;90.38
64111;DHT22;50401;48.188;11.566;2023-08-30T05:32:31;13.81;90.37
64111;DHT22;50401;48.188;11.566;2023-08-30T05:34:56;13.83;90.43
64111;DHT22;50401;48.188;11.566;2023-08-30T05:37:21;13.83;90.37
64111;DHT22;50401;48.188;11.566;2023-08-30T05:39:47;13.83;90.37
64111;DHT22;50401;48.188;11.566;2023-08-30T05:42:12;13.83;90.52
64111;DHT22;50401;48.188;11.566;2023-08-30T05:44:38;13.87;90.46
64111;DHT22;50401;48.188;11.566;2023-08-30T05:47:03;13.85;90.47
64111;DHT22;50401;48.188;11.566;2023-08-30T05:49:28;13.88;90.46
64111;DHT22;50401;48.188;11.566;2023-08-30T05:51:53;13.93;90.36
64111;DHT22;50401;48.188;11.566;2023-08-30T05:54:19;13.93;90.28
64111;DHT22;50401;48.188;11.566;2023-08-30T05:56:44;13.90;90.26
64111;DHT22;50401;48.188;11.566;2023-08-30T05:59:10;13.88;90.29
64111;DHT22;50401;48.188;11.566;2023-08-30T06:01:35;13.90;90.27
64111;DHT22;50401;48.188;11.566;2023-08-30T06:04:00;13.90;90.26
64111;DHT22;50401;48.188;11.566;2023-08-30T06:06:25;13.88;90.20
64111;DHT22;50401;48.188;11.566;2023-08-30T06:08:52;13.90;90.19
64111;DHT22;50401;48.188;11.566;2023-08-30T06:11:17;13.97;90.20
64111;DHT22;50401;48.188;11.566;2023-08-30T06:13:43;13.97;90.20
64111;DHT22;50401;48.188;11.566;2023-08-30T06:16:08;14.01;90.19
64111;DHT22;50401;48.188;11.566;2023-08-30T06:18:33;14.04;90.11
64111;DHT22;50401;48.188;11.566;2023-08-30T06:20:58;14.05;90.11
64111;DHT22;50401;48.188;11.566;2023-08-30T06:23:24;14.08;89.99
64111;DHT22;50401;48.188;11.566;2023-08-30T06:25:55;14.10;89.95
64111;DHT22;50401;48.188;11.566;2023-08-30T06:28:21;14.10;89.89
64111;DHT22;50401;48.188;11.566;2023-08-30T06:30:46;14.10;89.91
64111;DHT22;50401;48.188;11.566;2023-08-30T06:33:11;14.08;89.85
64111;DHT22;50401;48.188;11.566;2023-08-30T06:35:37;14.14;89.80
64111;DHT22;50401;48.188;11.566;2023-08-30T06:38:04;14.19;89.82
64111;DHT22;50401;48.188;11.566;2023-08-30T06:40:29;14.22;89.70
64111;DHT22;50401;48.188;11.566;2023-08-30T06:42:54;14.26;89.58
64111;DHT22;50401;48.188;11.566;2023-08-30T06:45:20;14.28;89.58
64111;DHT22;50401;48.188;11.566;2023-08-30T06:47:45;14.32;89.52
64111;DHT22;50401;48.188;11.566;2023-08-30T06:50:10;14.35;89.52
64111;DHT22;50401;48.188;11.566;2023-08-30T06:52:36;14.37;89.39
64111;DHT22;50401;48.188;11.566;2023-08-30T06:55:01;14.37;89.29
64111;DHT22;50401;48.188;11.566;2023-08-30T06:57:27;14.40;89.29
64111;DHT22;50401;48.188;11.566;2023-08-30T06:59:52;14.30;89.46
64111;DHT22;50401;48.188;11.566;2023-08-30T07:02:17;14.37;89.41
64111;DHT22;50401;48.188;11.566;2023-08-30T07:04:42;14.39;89.41
64111;DHT22;50401;48.188;11.566;2023-08-30T07:07:08;14.45;89.38
64111;DHT22;50401;48.188;11.566;2023-08-30T07:09:33;14.45;89.31
64111;DHT22;50401;48.188;11.566;2023-08-30T07:11:58;14.49;89.28
64111;DHT22;50401;48.188;11.566;2023-08-30T07:14:24;14.53;89.08
64111;DHT22;50401;48.188;11.566;2023-08-30T07:16:49;14.57;89.09
64111;DHT22;50401;48.188;11.566;2023-08-30T07:19:15;14.61;89.17
64111;DHT22;50401;48.188;11.566;2023-08-30T07:21:41;14.67;89.13
64111;DHT22;50401;48.188;11.566;2023-08-30T07:24:06;14.70;89.05
64111;DHT22;50401;48.188;11.566;2023-08-30T07:26:32;14.60;88.77
64111;DHT22;50401;48.188;11.566;2023-08-30T07:28:57;14.69;88.82
64111;DHT22;50401;48.188;11.566;2023-08-30T07:31:22;14.76;88.88
64111;DHT22;50401;48.188;11.566;2023-08-30T07:33:48;14.83;88.79
64111;DHT22;50401;48.188;11.566;2023-08-30T07:36:13;14.81;88.81
64111;DHT22;50401;48.188;11.566;2023-08-30T07:38:38;14.87;88.73
64111;DHT22;50401;48.188;11.566;2023-08-30T07:41:03;14.91;88.59
64111;DHT22;50401;48.188;11.566;2023-08-30T07:43:29;14.94;88.57
64111;DHT22;50401;48.188;11.566;2023-08-30T07:45:54;15.05;88.52
64111;DHT22;50401;48.188;11.566;2023-08-30T07:48:19;15.12;88.40
64111;DHT22;50401;48.188;11.566;2023-08-30T07:50:45;15.16;88.28
64111;DHT22;50401;48.188;11.566;2023-08-30T07:53:10;15.19;88.15
64111;DHT22;50401;48.188;11.566;2023-08-30T07:55:35;15.22;87.98
64111;DHT22;50401;48.188;11.566;2023-08-30T07:58:01;15.28;88.03
64111;DHT22;50401;48.188;11.566;2023-08-30T08:00:26;15.33;87.91
64111;DHT22;50401;48.188;11.566;2023-08-30T08:02:51;15.37;87.74
64111;DHT22;50401;48.188;11.566;2023-08-30T08:05:16;15.43;87.37
64111;DHT22;50401;48.188;11.566;2023-08-30T08:07:42;15.47;87.46
64111;DHT22;50401;48.188;11.566;2023-08-30T08:10:08;15.63;87.45
64111;DHT22;50401;48.188;11.566;2023-08-30T08:12:33;15.91;86.99
64111;DHT22;50401;48.188;11.566;2023-08-30T08:14:58;16.16;86.09
64111;DHT22;50401;48.188;11.566;2023-08-30T08:17:24;16.32;85.96
64111;DHT22;50401;48.188;11.566;2023-08-30T08:19:49;16.39;85.38
64111;DHT22;50401;48.188;11.566;2023-08-30T08:22:14;16.43;85.27
64111;DHT22;50401;48.188;11.566;2023-08-30T08:24:39;16.44;84.96
64111;DHT22;50401;48.188;11.566;2023-08-30T08:27:05;16.54;84.62
64111;DHT22;50401;48.188;11.566;2023-08-30T08:29:31;17.37;83.09
64111;DHT22;50401;48.188;11.566;2023-08-30T08:31:56;17.61;81.64
64111;DHT22;50401;48.188;11.566;2023-08-30T08:34:21;17.57;81.63
64111;DHT22;50401;48.188;11.566;2023-08-30T08:36:46;17.82;80.94
64111;DHT22;50401;48.188;11.566;2023-08-30T08:39:12;18.30;80.17
64111;DHT22;50401;48.188;11.566;2023-08-30T08:41:42;18.58;77.84
64111;DHT22;50401;48.188;11.566;2023-08-30T08:44:09;18.89;76.91
64111;DHT22;50401;48.188;11.566;2023-08-30T08:46:35;18.99;75.71
64111;DHT22;50401;48.188;11.566;2023-08-30T08:49:03;19.65;75.07
64111;DHT22;50401;48.188;11.566;2023-08-30T08:51:30;20.17;73.00
64111;DHT22;50401;48.188;11.566;2023-08-30T08:53:57;19.15;72.11
64111;DHT22;50401;48.188;11.566;2023-08-30T08:56:27;19.45;72.52
64111;DHT22;50401;48.188;11.566;2023-08-30T08:58:52;19.72;72.57
64111;DHT22;50401;48.188;11.566;2023-08-30T09:01:18;20.15;71.89
64111;DHT22;50401;48.188;11.566;2023-08-30T09:03:43;20.17;69.33
64111;DHT22;50401;48.188;11.566;2023-08-30T09:06:09;20.29;68.49
64111;DHT22;50401;48.188;11.566;2023-08-30T09:08:34;20.11;69.66
64111;DHT22;50401;48.188;11.566;2023-08-30T09:10:59;20.07;70.66
64111;DHT22;50401;48.188;11.566;2023-08-30T09:13:25;19.62;70.28
64111;DHT22;50401;48.188;11.566;2023-08-30T09:15:51;20.07;69.46
64111;DHT22;50401;48.188;11.566;2023-08-30T09:18:16;19.76;69.82
64111;DHT22;50401;48.188;11.566;2023-08-30T09:20:42;20.29;69.70
64111;DHT22;50401;48.188;11.566;2023-08-30T09:23:15;19.77;70.14
64111;DHT22;50401;48.188;11.566;2023-08-30T09:25:41;20.04;69.80
64111;DHT22;50401;48.188;11.566;2023-08-30T09:28:06;20.85;67.70
64111;DHT22;50401;48.188;11.566;2023-08-30T09:30:32;20.35;67.14
64111;DHT22;50401;48.188;11.566;2023-08-30T09:33:01;19.80;67.43
64111;DHT22;50401;48.188;11.566;2023-08-30T09:35:27;19.25;68.99
64111;DHT22;50401;48.188;11.566;2023-08-30T09:37:53;20.48;67.61
64111;DHT22;50401;48.188;11.566;2023-08-30T09:40:19;20.83;64.41
64111;DHT22;50401;48.188;11.566;2023-08-30T09:42:44;20.39;62.98
64111;DHT22;50401;48.188;11.566;2023-08-30T09:45:22;20.50;63.80
64111;DHT22;50401;48.188;11.566;2023-08-30T09:47:50;20.33;64.59
64111;DHT22;50401;48.188;11.566;2023-08-30T09:50:19;19.47;67.15
64111;DHT22;50401;48.188;11.566;2023-08-30T09:52:48;20.08;67.12
64111;DHT22;50401;48.188;11.566;2023-08-30T09:55:14;20.45;65.51
64111;DHT22;50401;48.188;11.566;2023-08-30T09:57:40;21.08;64.81
64111;DHT22;50401;48.188;11.566;2023-08-30T10:00:06;20.95;64.34
64111;DHT22;50401;48.188;11.566;2023-08-30T10:02:32;20.84;64.87
64111;DHT22;50401;48.188;11.566;2023-08-30T10:04:58;20.63;65.62
64111;DHT22;50401;48.188;11.566;2023-08-30T10:07:24;20.31;65.56
64111;DHT22;50401;48.188;11.566;2023-08-30T10:09:50;19.89;66.79
64111;DHT22;50401;48.188;11.566;2023-08-30T10:12:16;19.49;68.73
64111;DHT22;50401;48.188;11.566;2023-08-30T10:14:41;19.14;69.83
64111;DHT22;50401;48.188;11.566;2023-08-30T10:17:07;18.93;70.28
64111;DHT22;50401;48.188;11.566;2023-08-30T10:19:34;18.65;70.63
64111;DHT22;50401;48.188;11.566;2023-08-30T10:22:05;18.48;71.18
64111;DHT22;50401;48.188;11.566;2023-08-30T10:24:39;18.38;71.48
64111;DHT22;50401;48.188;11.566;2023-08-30T10:27:06;18.31;71.15
64111;DHT22;50401;48.188;11.566;2023-08-30T10:29:33;18.27;70.50
64111;DHT22;50401;48.188;11.566;2023-08-30T10:32:05;18.20;70.30
64111;DHT22;50401;48.188;11.566;2023-08-30T10:34:34;18.17;70.81
64111;DHT22;50401;48.188;11.566;2023-08-30T10:36:59;18.30;70.40
64111;DHT22;50401;48.188;11.566;2023-08-30T10:39:38;18.36;70.07
64111;DHT22;50401;48.188;11.566;2023-08-30T10:42:07;18.48;70.49
64111;DHT22;50401;48.188;11.566;2023-08-30T10:44:33;18.79;70.35
64111;DHT22;50401;48.188;11.566;2023-08-30T10:46:58;19.10;69.54
64111;DHT22;50401;48.188;11.566;2023-08-30T10:49:26;19.39;69.22
64111;DHT22;50401;48.188;11.566;2023-08-30T10:51:55;19.45;68.51
64111;DHT22;50401;48.188;11.566;2023-08-30T10:54:22;19.62;68.66
64111;DHT22;50401;48.188;11.566;2023-08-30T10:59:17;19.79;67.84
64111;DHT22;50401;48.188;11.566;2023-08-30T11:01:43;19.89;67.95
64111;DHT22;50401;48.188;11.566;2023-08-30T11:04:09;19.98;66.71
64111;DHT22;50401;48.188;11.566;2023-08-30T11:06:34;19.70;66.00
64111;DHT22;50401;48.188;11.566;2023-08-30T11:09:02;19.48;65.82
64111;DHT22;50401;48.188;11.566;2023-08-30T11:11:28;19.66;65.20
64111;DHT22;50401;48.188;11.566;2023-08-30T11:13:54;19.70;64.58
64111;DHT22;50401;48.188;11.566;2023-08-30T11:16:22;19.58;62.55
64111;DHT22;50401;48.188;11.566;2023-08-30T11:18:48;18.58;64.22
64111;DHT22;50401;48.188;11.566;2023-08-30T11:21:14;18.34;63.54
64111;DHT22;50401;48.188;11.566;2023-08-30T11:23:39;18.40;61.79
64111;DHT22;50401;48.188;11.566;2023-08-30T11:26:04;18.68;63.79
64111;DHT22;50401;48.188;11.566;2023-08-30T11:28:30;18.75;63.62
64111;DHT22;50401;48.188;11.566;2023-08-30T11:30:55;19.04;63.74
64111;DHT22;50401;48.188;11.566;2023-08-30T11:33:21;18.48;64.89
64111;DHT22;50401;48.188;11.566;2023-08-30T11:35:47;18.55;65.15
64111;DHT22;50401;48.188;11.566;2023-08-30T11:38:13;18.75;65.56
64111;DHT22;50401;48.188;11.566;2023-08-30T11:40:38;18.87;65.14
64111;DHT22;50401;48.188;11.566;2023-08-30T11:43:04;18.96;65.86
64111;DHT22;50401;48.188;11.566;2023-08-30T11:45:32;19.04;67.20
64111;DHT22;50401;48.188;11.566;2023-08-30T11:48:00;19.13;67.23
64111;DHT22;50401;48.188;11.566;2023-08-30T11:50:26;19.15;67.14
64111;DHT22;50401;48.188;11.566;2023-08-30T11:52:51;19.13;66.91
64111;DHT22;50401;48.188;11.566;2023-08-30T11:55:17;19.10;65.84
64111;DHT22;50401;48.188;11.566;2023-08-30T11:57:48;19.18;66.03
64111;DHT22;50401;48.188;11.566;2023-08-30T12:00:14;19.27;65.95
64111;DHT22;50401;48.188;11.566;2023-08-30T12:02:39;19.51;66.40
64111;DHT22;50401;48.188;11.566;2023-08-30T12:05:05;19.52;65.77
64111;DHT22;50401;48.188;11.566;2023-08-30T12:07:30;19.59;65.57
64111;DHT22;50401;48.188;11.566;2023-08-30T12:10:09;19.72;65.26
64111;DHT22;50401;48.188;11.566;2023-08-30T12:12:34;19.93;65.00
64111;DHT22;50401;48.188;11.566;2023-08-30T12:15:02;19.67;63.24
64111;DHT22;50401;48.188;11.566;2023-08-30T12:17:32;19.83;63.10
64111;DHT22;50401;48.188;11.566;2023-08-30T12:19:59;19.69;62.29
64111;DHT22;50401;48.188;11.566;2023-08-30T12:22:35;19.54;63.63
64111;DHT22;50401;48.188;11.566;2023-08-30T12:25:00;19.47;64.02
64111;DHT22;50401;48.188;11.566;2023-08-30T12:27:25;19.41;64.18
64111;DHT22;50401;48.188;11.566;2023-08-30T12:29:51;19.41;64.73
64111;DHT22;50401;48.188;11.566;2023-08-30T12:32:16;19.48;64.48
64111;DHT22;50401;48.188;11.566;2023-08-30T12:34:41;19.52;64.06
64111;DHT22;50401;48.188;11.566;2023-08-30T12:37:06;19.38;64.34
64111;DHT22;50401;48.188;11.566;2023-08-30T12:39:32;19.51;64.13
64111;DHT22;50401;48.188;11.566;2023-08-30T12:41:57;19.63;64.38
64111;DHT22;50401;48.188;11.566;2023-08-30T12:44:22;19.83;62.63
64111;DHT22;50401;48.188;11.566;2023-08-30T12:46:48;19.98;62.02
64111;DHT22;50401;48.188;11.566;2023-08-30T12:49:14;20.13;61.39
64111;DHT22;50401;48.188;11.566;2023-08-30T12:51:39;20.26;59.63
64111;DHT22;50401;48.188;11.566;2023-08-30T12:54:04;20.26;58.33
64111;DHT22;50401;48.188;11.566;2023-08-30T12:56:29;20.32;59.28
64111;DHT22;50401;48.188;11.566;2023-08-30T12:58:55;20.43;59.74
64111;DHT22;50401;48.188;11.566;2023-08-30T13:01:20;20.42;59.89
64111;DHT22;50401;48.188;11.566;2023-08-30T13:03:45;20.32;59.05
64111;DHT22;50401;48.188;11.566;2023-08-30T13:06:10;20.21;59.43
64111;DHT22;50401;48.188;11.566;2023-08-30T13:08:36;20.13;61.73
64111;DHT22;50401;48.188;11.566;2023-08-30T13:11:01;20.06;62.60
64111;DHT22;50401;48.188;11.566;2023-08-30T13:13:26;19.98;63.38
64111;DHT22;50401;48.188;11.566;2023-08-30T13:15:51;19.90;64.39
64111;DHT22;50401;48.188;11.566;2023-08-30T13:18:17;19.70;65.72
64111;DHT22;50401;48.188;11.566;2023-08-30T13:20:42;19.56;66.41
64111;DHT22;50401;48.188;11.566;2023-08-30T13:23:08;19.41;67.33
64111;DHT22;50401;48.188;11.566;2023-08-30T13:25:33;19.22;68.07
64111;DHT22;50401;48.188;11.566;2023-08-30T13:27:58;19.07;68.12
64111;DHT22;50401;48.188;11.566;2023-08-30T13:30:23;18.97;68.01
64111;DHT22;50401;48.188;11.566;2023-08-30T13:32:49;18.86;68.47
64111;DHT22;50401;48.188;11.566;2023-08-30T13:35:14;18.75;68.56
64111;DHT22;50401;48.188;11.566;2023-08-30T13:37:39;18.63;68.89
64111;DHT22;50401;48.188;11.566;2023-08-30T13:40:05;18.61;69.73
64111;DHT22;50401;48.188;11.566;2023-08-30T13:42:31;18.55;69.94
64111;DHT22;50401;48.188;11.566;2023-08-30T13:44:57;18.58;70.03
64111;DHT22;50401;48.188;11.566;2023-08-30T13:47:22;18.61;70.01
64111;DHT22;50401;48.188;11.566;2023-08-30T13:49:47;18.58;70.24
64111;DHT22;50401;48.188;11.566;2023-08-30T13:52:12;18.63;70.39
64111;DHT22;50401;48.188;11.566;2023-08-30T13:54:37;18.58;70.29
64111;DHT22;50401;48.188;11.566;2023-08-30T13:57:03;18.54;70.13
64111;DHT22;50401;48.188;11.566;2023-08-30T13:59:28;18.58;69.93
64111;DHT22;50401;48.188;11.566;2023-08-30T14:01:53;18.54;70.17
64111;DHT22;50401;48.188;11.566;2023-08-30T14:04:19;18.52;70.08
64111;DHT22;50401;48.188;11.566;2023-08-30T14:06:44;18.54;69.88
64111;DHT22;50401;48.188;11.566;2023-08-30T14:09:09;18.45;69.02
64111;DHT22;50401;48.188;11.566;2023-08-30T14:11:35;18.45;69.47
64111;DHT22;50401;48.188;11.566;2023-08-30T14:14:02;18.54;69.54
64111;DHT22;50401;48.188;11.566;2023-08-30T14:16:28;18.47;69.32
64111;DHT22;50401;48.188;11.566;2023-08-30T14:18:53;18.44;69.43
64111;DHT22;50401;48.188;11.566;2023-08-30T14:21:18;18.47;69.11
64111;DHT22;50401;48.188;11.566;2023-08-30T14:23:43;18.54;69.40
64111;DHT22;50401;48.188;11.566;2023-08-30T14:26:08;18.63;69.00
64111;DHT22;50401;48.188;11.566;2023-08-30T14:28:35;18.66;68.55
64111;DHT22;50401;48.188;11.566;2023-08-30T14:31:01;18.69;68.35
64111;DHT22;50401;48.188;11.566;2023-08-30T14:33:26;18.69;68.08
64111;DHT22;50401;48.188;11.566;2023-08-30T14:35:51;18.72;68.13
64111;DHT22;50401;48.188;11.566;2023-08-30T14:38:16;18.75;67.94
64111;DHT22;50401;48.188;11.566;2023-08-30T14:40:41;18.89;67.47
64111;DHT22;50401;48.188;11.566;2023-08-30T14:43:08;18.95;67.38
64111;DHT22;50401;48.188;11.566;2023-08-30T14:45:33;18.96;66.94
64111;DHT22;50401;48.188;11.566;2023-08-30T14:47:58;19.02;66.20
64111;DHT22;50401;48.188;11.566;2023-08-30T14:50:23;19.08;66.47
64111;DHT22;50401;48.188;11.566;2023-08-30T14:52:49;19.17;65.63
64111;DHT22;50401;48.188;11.566;2023-08-30T14:55:15;19.22;65.75
64111;DHT22;50401;48.188;11.566;2023-08-30T14:57:40;19.22;64.12
64111;DHT22;50401;48.188;11.566;2023-08-30T15:00:06;19.22;63.63
64111;DHT22;50401;48.188;11.566;2023-08-30T15:02:31;19.21;64.22
64111;DHT22;50401;48.188;11.566;2023-08-30T15:04:57;19.21;63.80
64111;DHT22;50401;48.188;11.566;2023-08-30T15:07:22;19.10;62.91
64111;DHT22;50401;48.188;11.566;2023-08-30T15:09:47;19.10;63.19
64111;DHT22;50401;48.188;11.566;2023-08-30T15:12:12;19.17;63.39
64111;DHT22;50401;48.188;11.566;2023-08-30T15:14:38;19.17;63.82